sensor_id;sensor_type;location;lat;lon;timestamp;temperature;humidity
67163;DHT22;54092;53.088;8.850;2023-02-20T00:02:22;6.70;99.90
67163;DHT22;54092;53.088;8.850;2023-02-20T00:04:47;6.70;99.90
67163;DHT22;54092;53.088;8.850;2023-02-20T00:07:13;6.70;99.90
67163;DHT22;54092;53.088;8.850;2023-02-20T00:09:38;6.70;99.90
67163;DHT22;54092;53.088;8.850;2023-02-20T00:12:04;6.70;99.90
67163;DHT22;54092;53.088;8.850;2023-02-20T00:14:29;6.70;99.90
67163;DHT22;54092;53.088;8.850;2023-02-20T00:16:55;6.70;99.90
67163;DHT22;54092;53.088;8.850;2023-02-20T00:19:21;6.70;99.90
67163;DHT22;54092;53.088;8.850;2023-02-20T00:21:47;6.70;99.90
67163;DHT22;54092;53.088;8.850;2023-02-20T00:24:14;6.70;99.90
67163;DHT22;54092;53.088;8.850;2023-02-20T00:26:48;6.70;99.90
67163;DHT22;54092;53.088;8.850;2023-02-20T00:29:16;6.70;99.90
67163;DHT22;54092;53.088;8.850;2023-02-20T00:31:42;6.70;99.90
67163;DHT22;54092;53.088;8.850;2023-02-20T00:34:07;6.70;99.90
67163;DHT22;54092;53.088;8.850;2023-02-20T00:36:33;6.70;99.90
67163;DHT22;54092;53.088;8.850;2023-02-20T00:38:58;6.70;99.90
67163;DHT22;54092;53.088;8.850;2023-02-20T00:41:24;6.70;99.90
67163;DHT22;54092;53.088;8.850;2023-02-20T00:43:50;6.70;99.90
67163;DHT22;54092;53.088;8.850;2023-02-20T00:46:16;6.70;99.90
67163;DHT22;54092;53.088;8.850;2023-02-20T00:48:41;6.70;99.90
67163;DHT22;54092;53.088;8.850;2023-02-20T00:51:07;6.70;99.90
67163;DHT22;54092;53.088;8.850;2023-02-20T00:53:32;6.80;99.90
67163;DHT22;54092;53.088;8.850;2023-02-20T00:55:58;6.80;99.90
67163;DHT22;54092;53.088;8.850;2023-02-20T00:58:23;6.70;99.90
67163;DHT22;54092;53.088;8.850;2023-02-20T01:00:49;6.70;99.90
67163;DHT22;54092;53.088;8.850;2023-02-20T01:03:14;6.80;99.90
67163;DHT22;54092;53.088;8.850;2023-02-20T01:05:40;6.80;99.90
67163;DHT22;54092;53.088;8.850;2023-02-20T01:08:05;6.70;99.90
67163;DHT22;54092;53.088;8.850;2023-02-20T01:10:31;6.80;99.90
67163;DHT22;54092;53.088;8.850;2023-02-20T01:12:56;6.80;99.90
67163;DHT22;54092;53.088;8.850;2023-02-20T01:15:22;6.70;99.90
67163;DHT22;54092;53.088;8.850;2023-02-20T01:17:47;6.80;99.90
67163;DHT22;54092;53.088;8.850;2023-02-20T01:20:13;6.80;99.90
67163;DHT22;54092;53.088;8.850;2023-02-20T01:22:39;6.80;99.90
67163;DHT22;54092;53.088;8.850;2023-02-20T01:25:06;6.80;99.90
67163;DHT22;54092;53.088;8.850;2023-02-20T01:27:31;6.90;99.90
67163;DHT22;54092;53.088;8.850;2023-02-20T01:29:57;6.80;99.90
67163;DHT22;54092;53.088;8.850;2023-02-20T01:32:22;6.80;99.90
67163;DHT22;54092;53.088;8.850;2023-02-20T01:34:48;6.90;99.90
67163;DHT22;54092;53.088;8.850;2023-02-20T01:37:13;6.90;99.90
67163;DHT22;54092;53.088;8.850;2023-02-20T01:39:39;6.90;99.90
67163;DHT22;54092;53.088;8.850;2023-02-20T01:42:07;6.90;99.90
67163;DHT22;54092;53.088;8.850;2023-02-20T01:44:35;6.90;99.90
67163;DHT22;54092;53.088;8.850;2023-02-20T01:47:05;6.90;99.90
67163;DHT22;54092;53.088;8.850;2023-02-20T01:49:36;7.00;99.90
67163;DHT22;54092;53.088;8.850;2023-02-20T01:52:09;7.00;99.90
67163;DHT22;54092;53.088;8.850;2023-02-20T01:54:38;7.00;99.90
67163;DHT22;54092;53.088;8.850;2023-02-20T01:57:08;7.00;99.90
67163;DHT22;54092;53.088;8.850;2023-02-20T01:59:38;7.00;99.90
67163;DHT22;54092;53.088;8.850;2023-02-20T02:02:05;7.00;99.90
67163;DHT22;54092;53.088;8.850;2023-02-20T02:04:32;7.10;99.90
67163;DHT22;54092;53.088;8.850;2023-02-20T02:06:58;7.10;99.90
67163;DHT22;54092;53.088;8.850;2023-02-20T02:09:41;7.10;99.90
67163;DHT22;54092;53.088;8.850;2023-02-20T02:12:08;7.20;99.90
67163;DHT22;54092;53.088;8.850;2023-02-20T02:14:34;7.30;99.90
67163;DHT22;54092;53.088;8.850;2023-02-20T02:20:13;7.30;99.90
67163;DHT22;54092;53.088;8.850;2023-02-20T02:22:51;7.30;99.90
67163;DHT22;54092;53.088;8.850;2023-02-20T02:25:54;7.30;99.90
67163;DHT22;54092;53.088;8.850;2023-02-20T02:28:47;7.30;99.90
67163;DHT22;54092;53.088;8.850;2023-02-20T02:42:50;7.40;99.90
67163;DHT22;54092;53.088;8.850;2023-02-20T02:45:31;7.40;99.90
67163;DHT22;54092;53.088;8.850;2023-02-20T02:50:36;7.40;99.90
67163;DHT22;54092;53.088;8.850;2023-02-20T02:53:04;7.40;99.90
67163;DHT22;54092;53.088;8.850;2023-02-20T02:55:32;7.40;99.90
67163;DHT22;54092;53.088;8.850;2023-02-20T02:58:01;7.40;99.90
67163;DHT22;54092;53.088;8.850;2023-02-20T03:00:42;7.50;99.90
67163;DHT22;54092;53.088;8.850;2023-02-20T03:06:05;7.40;99.90
67163;DHT22;54092;53.088;8.850;2023-02-20T03:08:41;7.40;99.90
67163;DHT22;54092;53.088;8.850;2023-02-20T03:11:13;7.40;99.90
67163;DHT22;54092;53.088;8.850;2023-02-20T03:13:43;7.40;99.90
67163;DHT22;54092;53.088;8.850;2023-02-20T03:16:36;7.40;99.90
67163;DHT22;54092;53.088;8.850;2023-02-20T03:19:09;7.50;99.90
67163;DHT22;54092;53.088;8.850;2023-02-20T03:21:42;7.50;99.90
67163;DHT22;54092;53.088;8.850;2023-02-20T03:24:09;7.50;99.90
67163;DHT22;54092;53.088;8.850;2023-02-20T03:26:36;7.50;99.90
67163;DHT22;54092;53.088;8.850;2023-02-20T03:29:12;7.50;99.90
67163;DHT22;54092;53.088;8.850;2023-02-20T03:31:55;7.50;99.90
67163;DHT22;54092;53.088;8.850;2023-02-20T03:34:42;7.40;99.90
67163;DHT22;54092;53.088;8.850;2023-02-20T03:37:28;7.50;99.90
67163;DHT22;54092;53.088;8.850;2023-02-20T03:40:14;7.50;99.90
67163;DHT22;54092;53.088;8.850;2023-02-20T03:43:02;7.50;99.90
67163;DHT22;54092;53.088;8.850;2023-02-20T03:46:00;7.50;99.90
67163;DHT22;54092;53.088;8.850;2023-02-20T03:51:15;7.50;99.90
67163;DHT22;54092;53.088;8.850;2023-02-20T03:53:42;7.50;99.90
67163;DHT22;54092;53.088;8.850;2023-02-20T03:56:13;7.60;99.90
67163;DHT22;54092;53.088;8.850;2023-02-20T03:58:44;7.50;99.90
67163;DHT22;54092;53.088;8.850;2023-02-20T04:01:12;7.60;99.90
67163;DHT22;54092;53.088;8.850;2023-02-20T04:03:44;7.60;99.90
67163;DHT22;54092;53.088;8.850;2023-02-20T04:06:11;7.50;99.90
67163;DHT22;54092;53.088;8.850;2023-02-20T04:08:51;7.60;99.90
67163;DHT22;54092;53.088;8.850;2023-02-20T04:11:32;7.60;99.90
67163;DHT22;54092;53.088;8.850;2023-02-20T04:14:00;7.60;99.90
67163;DHT22;54092;53.088;8.850;2023-02-20T04:16:26;7.60;99.90
67163;DHT22;54092;53.088;8.850;2023-02-20T04:18:52;7.50;99.90
67163;DHT22;54092;53.088;8.850;2023-02-20T04:21:31;7.50;99.90
67163;DHT22;54092;53.088;8.850;2023-02-20T04:24:06;7.60;99.90
67163;DHT22;54092;53.088;8.850;2023-02-20T04:26:33;7.60;99.90
67163;DHT22;54092;53.088;8.850;2023-02-20T04:28:59;7.70;99.90
67163;DHT22;54092;53.088;8.850;2023-02-20T04:31:26;7.70;99.90
67163;DHT22;54092;53.088;8.850;2023-02-20T04:33:51;7.70;99.90
67163;DHT22;54092;53.088;8.850;2023-02-20T04:36:17;7.70;99.90
67163;DHT22;54092;53.088;8.850;2023-02-20T04:38:42;7.70;99.90
67163;DHT22;54092;53.088;8.850;2023-02-20T04:41:08;7.70;99.90
67163;DHT22;54092;53.088;8.850;2023-02-20T04:43:33;7.70;99.90
67163;DHT22;54092;53.088;8.850;2023-02-20T04:45:59;7.70;99.90
67163;DHT22;54092;53.088;8.850;2023-02-20T04:48:24;7.80;99.90
67163;DHT22;54092;53.088;8.850;2023-02-20T04:50:50;7.80;99.90
67163;DHT22;54092;53.088;8.850;2023-02-20T04:53:15;7.80;99.90
67163;DHT22;54092;53.088;8.850;2023-02-20T04:55:41;7.80;99.90
67163;DHT22;54092;53.088;8.850;2023-02-20T04:58:06;7.80;99.90
67163;DHT22;54092;53.088;8.850;2023-02-20T05:00:32;7.80;99.90
67163;DHT22;54092;53.088;8.850;2023-02-20T05:02:57;7.80;99.90
67163;DHT22;54092;53.088;8.850;2023-02-20T05:05:28;7.90;99.90
67163;DHT22;54092;53.088;8.850;2023-02-20T05:07:55;7.90;99.90
67163;DHT22;54092;53.088;8.850;2023-02-20T05:10:22;7.80;99.90
67163;DHT22;54092;53.088;8.850;2023-02-20T05:12:48;7.80;99.90
67163;DHT22;54092;53.088;8.850;2023-02-20T05:15:14;7.80;99.90
67163;DHT22;54092;53.088;8.850;2023-02-20T05:17:39;7.80;99.90
67163;DHT22;54092;53.088;8.850;2023-02-20T05:20:06;7.80;99.90
67163;DHT22;54092;53.088;8.850;2023-02-20T05:22:32;7.80;99.90
67163;DHT22;54092;53.088;8.850;2023-02-20T05:24:58;7.80;99.90
67163;DHT22;54092;53.088;8.850;2023-02-20T05:27:24;7.80;99.90
67163;DHT22;54092;53.088;8.850;2023-02-20T05:29:52;7.70;99.90
67163;DHT22;54092;53.088;8.850;2023-02-20T05:32:19;7.80;99.90
67163;DHT22;54092;53.088;8.850;2023-02-20T05:34:45;7.70;99.90
67163;DHT22;54092;53.088;8.850;2023-02-20T05:37:12;7.70;99.90
67163;DHT22;54092;53.088;8.850;2023-02-20T05:39:38;7.60;99.90
67163;DHT22;54092;53.088;8.850;2023-02-20T05:42:05;7.70;99.90
67163;DHT22;54092;53.088;8.850;2023-02-20T05:44:30;7.60;99.90
67163;DHT22;54092;53.088;8.850;2023-02-20T05:46:56;7.60;99.90
67163;DHT22;54092;53.088;8.850;2023-02-20T05:49:22;7.60;99.90
67163;DHT22;54092;53.088;8.850;2023-02-20T05:51:47;7.60;99.90
67163;DHT22;54092;53.088;8.850;2023-02-20T05:54:16;7.60;99.90
67163;DHT22;54092;53.088;8.850;2023-02-20T05:56:43;7.60;99.90
67163;DHT22;54092;53.088;8.850;2023-02-20T05:59:09;7.60;99.90
67163;DHT22;54092;53.088;8.850;2023-02-20T06:01:35;7.60;99.90
67163;DHT22;54092;53.088;8.850;2023-02-20T06:04:00;7.50;99.90
67163;DHT22;54092;53.088;8.850;2023-02-20T06:06:38;7.50;99.90
67163;DHT22;54092;53.088;8.850;2023-02-20T06:09:04;7.50;99.90
67163;DHT22;54092;53.088;8.850;2023-02-20T06:11:35;7.50;99.90
67163;DHT22;54092;53.088;8.850;2023-02-20T06:14:02;7.50;99.90
67163;DHT22;54092;53.088;8.850;2023-02-20T06:16:29;7.50;99.90
67163;DHT22;54092;53.088;8.850;2023-02-20T06:18:55;7.40;99.90
67163;DHT22;54092;53.088;8.850;2023-02-20T06:21:22;7.60;99.90
67163;DHT22;54092;53.088;8.850;2023-02-20T06:23:49;7.70;99.90
67163;DHT22;54092;53.088;8.850;2023-02-20T06:26:15;7.80;99.90
67163;DHT22;54092;53.088;8.850;2023-02-20T06:28:41;7.80;99.90
67163;DHT22;54092;53.088;8.850;2023-02-20T06:31:07;7.70;99.90
67163;DHT22;54092;53.088;8.850;2023-02-20T06:33:34;7.60;99.90
67163;DHT22;54092;53.088;8.850;2023-02-20T06:36:00;7.60;99.90
67163;DHT22;54092;53.088;8.850;2023-02-20T06:38:26;7.60;99.90
67163;DHT22;54092;53.088;8.850;2023-02-20T06:40:51;7.60;99.90
67163;DHT22;54092;53.088;8.850;2023-02-20T06:43:17;7.60;99.90
67163;DHT22;54092;53.088;8.850;2023-02-20T06:45:43;7.60;99.90
67163;DHT22;54092;53.088;8.850;2023-02-20T06:48:09;7.60;99.90
67163;DHT22;54092;53.088;8.850;2023-02-20T06:50:35;7.60;99.90
67163;DHT22;54092;53.088;8.850;2023-02-20T06:53:00;7.60;99.90
67163;DHT22;54092;53.088;8.850;2023-02-20T06:55:26;7.60;99.90
67163;DHT22;54092;53.088;8.850;2023-02-20T06:57:51;7.60;99.90
67163;DHT22;54092;53.088;8.850;2023-02-20T07:00:17;7.60;99.90
67163;DHT22;54092;53.088;8.850;2023-02-20T07:02:43;7.60;99.90
67163;DHT22;54092;53.088;8.850;2023-02-20T07:05:10;7.60;99.90
67163;DHT22;54092;53.088;8.850;2023-02-20T07:07:36;7.70;99.90
67163;DHT22;54092;53.088;8.850;2023-02-20T07:10:02;7.70;99.90
67163;DHT22;54092;53.088;8.850;2023-02-20T07:12:31;7.70;99.90
67163;DHT22;54092;53.088;8.850;2023-02-20T07:14:57;7.70;99.90
67163;DHT22;54092;53.088;8.850;2023-02-20T07:17:23;7.70;99.90
67163;DHT22;54092;53.088;8.850;2023-02-20T07:19:48;7.80;99.90
67163;DHT22;54092;53.088;8.850;2023-02-20T07:22:14;7.80;99.90
67163;DHT22;54092;53.088;8.850;2023-02-20T07:24:39;7.80;99.90
67163;DHT22;54092;53.088;8.850;2023-02-20T07:27:09;7.80;99.90
67163;DHT22;54092;53.088;8.850;2023-02-20T07:29:38;7.80;99.90
67163;DHT22;54092;53.088;8.850;2023-02-20T07:32:05;7.80;99.90
67163;DHT22;54092;53.088;8.850;2023-02-20T07:34:33;7.80;99.90
67163;DHT22;54092;53.088;8.850;2023-02-20T07:36:58;7.90;99.90
67163;DHT22;54092;53.088;8.850;2023-02-20T07:39:24;7.80;99.90
67163;DHT22;54092;53.088;8.850;2023-02-20T07:41:50;7.80;99.90
67163;DHT22;54092;53.088;8.850;2023-02-20T07:44:16;7.90;99.90
67163;DHT22;54092;53.088;8.850;2023-02-20T07:46:41;7.90;99.90
67163;DHT22;54092;53.088;8.850;2023-02-20T07:49:07;7.90;99.90
67163;DHT22;54092;53.088;8.850;2023-02-20T07:51:33;7.90;99.90
67163;DHT22;54092;53.088;8.850;2023-02-20T07:53:58;8.00;99.90
67163;DHT22;54092;53.088;8.850;2023-02-20T07:56:24;8.00;99.90
67163;DHT22;54092;53.088;8.850;2023-02-20T07:58:50;8.00;99.90
67163;DHT22;54092;53.088;8.850;2023-02-20T08:01:16;8.00;99.90
67163;DHT22;54092;53.088;8.850;2023-02-20T08:03:42;8.00;99.90
67163;DHT22;54092;53.088;8.850;2023-02-20T08:06:07;8.00;99.90
67163;DHT22;54092;53.088;8.850;2023-02-20T08:08:33;8.10;99.90
67163;DHT22;54092;53.088;8.850;2023-02-20T08:10:58;8.10;99.90
67163;DHT22;54092;53.088;8.850;2023-02-20T08:13:24;8.10;99.90
67163;DHT22;54092;53.088;8.850;2023-02-20T08:15:49;8.10;99.90
67163;DHT22;54092;53.088;8.850;2023-02-20T08:18:15;8.20;99.90
67163;DHT22;54092;53.088;8.850;2023-02-20T08:20:41;8.20;99.90
67163;DHT22;54092;53.088;8.850;2023-02-20T08:23:19;8.20;99.90
67163;DHT22;54092;53.088;8.850;2023-02-20T08:25:45;8.30;99.90
67163;DHT22;54092;53.088;8.850;2023-02-20T08:28:11;8.30;99.90
67163;DHT22;54092;53.088;8.850;2023-02-20T08:30:36;8.40;99.90
67163;DHT22;54092;53.088;8.850;2023-02-20T08:33:02;8.40;99.90
67163;DHT22;54092;53.088;8.850;2023-02-20T08:35:31;8.40;99.90
67163;DHT22;54092;53.088;8.850;2023-02-20T08:38:00;8.40;99.90
67163;DHT22;54092;53.088;8.850;2023-02-20T08:40:25;8.50;99.90
67163;DHT22;54092;53.088;8.850;2023-02-20T08:42:51;8.40;99.90
67163;DHT22;54092;53.088;8.850;2023-02-20T08:45:17;8.40;99.90
67163;DHT22;54092;53.088;8.850;2023-02-20T08:47:42;8.40;99.90
67163;DHT22;54092;53.088;8.850;2023-02-20T08:50:08;8.50;99.90
67163;DHT22;54092;53.088;8.850;2023-02-20T08:52:34;8.50;99.90
67163;DHT22;54092;53.088;8.850;2023-02-20T08:54:59;8.50;99.90
67163;DHT22;54092;53.088;8.850;2023-02-20T08:57:25;8.50;99.90
67163;DHT22;54092;53.088;8.850;2023-02-20T08:59:50;8.50;99.90
67163;DHT22;54092;53.088;8.850;2023-02-20T09:02:21;8.50;99.90
67163;DHT22;54092;53.088;8.850;2023-02-20T09:04:49;8.50;99.90
67163;DHT22;54092;53.088;8.850;2023-02-20T09:07:15;8.50;99.90
67163;DHT22;54092;53.088;8.850;2023-02-20T09:09:41;8.60;99.90
67163;DHT22;54092;53.088;8.850;2023-02-20T09:12:08;8.60;99.90
67163;DHT22;54092;53.088;8.850;2023-02-20T09:14:34;8.60;99.90
67163;DHT22;54092;53.088;8.850;2023-02-20T09:16:59;8.70;99.90
67163;DHT22;54092;53.088;8.850;2023-02-20T09:19:25;8.70;99.90
67163;DHT22;54092;53.088;8.850;2023-02-20T09:21:50;8.70;99.90
67163;DHT22;54092;53.088;8.850;2023-02-20T09:24:16;8.70;99.90
67163;DHT22;54092;53.088;8.850;2023-02-20T09:26:41;8.80;99.90
67163;DHT22;54092;53.088;8.850;2023-02-20T09:29:07;8.80;99.90
67163;DHT22;54092;53.088;8.850;2023-02-20T09:31:32;8.80;99.90
67163;DHT22;54092;53.088;8.850;2023-02-20T09:33:58;8.80;99.90
67163;DHT22;54092;53.088;8.850;2023-02-20T09:36:25;8.80;99.90
67163;DHT22;54092;53.088;8.850;2023-02-20T09:38:51;8.70;99.90
67163;DHT22;54092;53.088;8.850;2023-02-20T09:44:40;8.80;99.90
67163;DHT22;54092;53.088;8.850;2023-02-20T09:50:12;8.80;99.90
67163;DHT22;54092;53.088;8.850;2023-02-20T09:52:40;8.80;99.90
67163;DHT22;54092;53.088;8.850;2023-02-20T09:55:16;8.90;99.90
67163;DHT22;54092;53.088;8.850;2023-02-20T09:57:47;8.90;99.90
67163;DHT22;54092;53.088;8.850;2023-02-20T10:00:26;8.90;99.90
67163;DHT22;54092;53.088;8.850;2023-02-20T10:03:20;9.00;99.90
67163;DHT22;54092;53.088;8.850;2023-02-20T10:05:47;9.00;99.90
67163;DHT22;54092;53.088;8.850;2023-02-20T10:08:18;9.00;99.90
67163;DHT22;54092;53.088;8.850;2023-02-20T10:10:43;9.10;99.90
67163;DHT22;54092;53.088;8.850;2023-02-20T10:13:33;9.10;99.90
67163;DHT22;54092;53.088;8.850;2023-02-20T10:16:12;9.20;99.90
67163;DHT22;54092;53.088;8.850;2023-02-20T10:18:56;9.20;99.90
67163;DHT22;54092;53.088;8.850;2023-02-20T10:21:42;9.20;99.90
67163;DHT22;54092;53.088;8.850;2023-02-20T10:24:37;9.30;99.90
67163;DHT22;54092;53.088;8.850;2023-02-20T10:29:48;9.30;99.90
67163;DHT22;54092;53.088;8.850;2023-02-20T10:32:29;9.30;99.90
67163;DHT22;54092;53.088;8.850;2023-02-20T10:35:01;9.40;99.90
67163;DHT22;54092;53.088;8.850;2023-02-20T10:37:34;9.40;99.90
67163;DHT22;54092;53.088;8.850;2023-02-20T10:40:19;9.40;99.90
67163;DHT22;54092;53.088;8.850;2023-02-20T10:43:01;9.40;99.90
67163;DHT22;54092;53.088;8.850;2023-02-20T10:45:45;9.40;99.90
67163;DHT22;54092;53.088;8.850;2023-02-20T10:48:13;9.40;99.90
67163;DHT22;54092;53.088;8.850;2023-02-20T10:51:05;9.40;99.90
67163;DHT22;54092;53.088;8.850;2023-02-20T10:56:26;9.50;99.90
67163;DHT22;54092;53.088;8.850;2023-02-20T11:01:22;9.50;99.90
67163;DHT22;54092;53.088;8.850;2023-02-20T11:06:31;9.50;99.90
67163;DHT22;54092;53.088;8.850;2023-02-20T11:08:58;9.50;99.90
67163;DHT22;54092;53.088;8.850;2023-02-20T11:11:31;9.60;99.90
67163;DHT22;54092;53.088;8.850;2023-02-20T11:13:59;9.50;99.90
67163;DHT22;54092;53.088;8.850;2023-02-20T11:16:30;9.50;99.90
67163;DHT22;54092;53.088;8.850;2023-02-20T11:19:03;9.50;99.90
67163;DHT22;54092;53.088;8.850;2023-02-20T11:21:42;9.50;99.90
67163;DHT22;54092;53.088;8.850;2023-02-20T11:26:49;9.50;99.90
67163;DHT22;54092;53.088;8.850;2023-02-20T11:29:19;9.50;99.90
67163;DHT22;54092;53.088;8.850;2023-02-20T11:31:46;9.40;99.90
67163;DHT22;54092;53.088;8.850;2023-02-20T11:34:23;9.40;99.90
67163;DHT22;54092;53.088;8.850;2023-02-20T11:36:54;9.40;99.90
67163;DHT22;54092;53.088;8.850;2023-02-20T11:39:28;9.40;99.90
67163;DHT22;54092;53.088;8.850;2023-02-20T11:42:23;9.40;99.90
67163;DHT22;54092;53.088;8.850;2023-02-20T11:45:23;9.50;99.90
67163;DHT22;54092;53.088;8.850;2023-02-20T11:48:06;9.50;99.90
67163;DHT22;54092;53.088;8.850;2023-02-20T11:50:50;9.50;99.90
67163;DHT22;54092;53.088;8.850;2023-02-20T11:53:22;9.50;99.90
67163;DHT22;54092;53.088;8.850;2023-02-20T11:55:50;9.50;99.90
67163;DHT22;54092;53.088;8.850;2023-02-20T11:58:30;9.50;99.90
67163;DHT22;54092;53.088;8.850;2023-02-20T12:00:56;9.50;99.90
67163;DHT22;54092;53.088;8.850;2023-02-20T12:03:22;9.50;99.90
67163;DHT22;54092;53.088;8.850;2023-02-20T12:05:48;9.50;99.90
67163;DHT22;54092;53.088;8.850;2023-02-20T12:11:14;9.60;99.90
67163;DHT22;54092;53.088;8.850;2023-02-20T12:13:43;9.60;99.90
67163;DHT22;54092;53.088;8.850;2023-02-20T12:16:30;9.60;99.90
67163;DHT22;54092;53.088;8.850;2023-02-20T12:19:11;9.60;99.90
67163;DHT22;54092;53.088;8.850;2023-02-20T12:35:36;9.80;99.90
67163;DHT22;54092;53.088;8.850;2023-02-20T12:38:20;9.80;99.90
67163;DHT22;54092;53.088;8.850;2023-02-20T12:43:49;9.80;99.90
67163;DHT22;54092;53.088;8.850;2023-02-20T12:46:27;9.90;99.90
67163;DHT22;54092;53.088;8.850;2023-02-20T12:49:18;9.80;99.90
67163;DHT22;54092;53.088;8.850;2023-02-20T12:54:41;9.90;99.90
67163;DHT22;54092;53.088;8.850;2023-02-20T12:57:20;9.90;99.90
67163;DHT22;54092;53.088;8.850;2023-02-20T13:00:21;10.00;99.90
67163;DHT22;54092;53.088;8.850;2023-02-20T13:02:49;10.00;99.90
67163;DHT22;54092;53.088;8.850;2023-02-20T13:05:19;10.00;99.90
67163;DHT22;54092;53.088;8.850;2023-02-20T13:07:50;10.00;99.90
67163;DHT22;54092;53.088;8.850;2023-02-20T13:10:22;9.90;99.90
67163;DHT22;54092;53.088;8.850;2023-02-20T13:12:49;9.90;99.90
67163;DHT22;54092;53.088;8.850;2023-02-20T13:15:27;10.00;99.90
67163;DHT22;54092;53.088;8.850;2023-02-20T13:18:32;10.00;99.90
67163;DHT22;54092;53.088;8.850;2023-02-20T13:21:12;9.90;99.90
67163;DHT22;54092;53.088;8.850;2023-02-20T13:23:39;9.90;99.90
67163;DHT22;54092;53.088;8.850;2023-02-20T13:29:16;9.80;99.90
67163;DHT22;54092;53.088;8.850;2023-02-20T13:31:51;9.80;99.90
67163;DHT22;54092;53.088;8.850;2023-02-20T13:36:43;9.80;99.90
67163;DHT22;54092;53.088;8.850;2023-02-20T13:41:58;9.80;99.90
67163;DHT22;54092;53.088;8.850;2023-02-20T13:47:15;9.60;99.90
67163;DHT22;54092;53.088;8.850;2023-02-20T13:52:37;9.60;99.90
67163;DHT22;54092;53.088;8.850;2023-02-20T13:57:44;9.50;99.90
67163;DHT22;54092;53.088;8.850;2023-02-20T14:03:12;9.50;99.90
67163;DHT22;54092;53.088;8.850;2023-02-20T14:05:39;9.50;99.90
67163;DHT22;54092;53.088;8.850;2023-02-20T14:08:05;9.50;99.90
67163;DHT22;54092;53.088;8.850;2023-02-20T14:10:36;9.50;99.90
67163;DHT22;54092;53.088;8.850;2023-02-20T14:13:09;9.60;99.90
67163;DHT22;54092;53.088;8.850;2023-02-20T14:15:46;9.60;99.90
67163;DHT22;54092;53.088;8.850;2023-02-20T14:18:16;9.70;99.90
67163;DHT22;54092;53.088;8.850;2023-02-20T14:20:42;9.80;99.90
67163;DHT22;54092;53.088;8.850;2023-02-20T14:23:23;9.80;99.90
67163;DHT22;54092;53.088;8.850;2023-02-20T14:25:57;9.80;99.90
67163;DHT22;54092;53.088;8.850;2023-02-20T14:28:23;9.90;99.90
67163;DHT22;54092;53.088;8.850;2023-02-20T14:31:17;10.00;99.90
67163;DHT22;54092;53.088;8.850;2023-02-20T14:33:44;10.00;99.90
67163;DHT22;54092;53.088;8.850;2023-02-20T14:38:59;10.00;99.90
67163;DHT22;54092;53.088;8.850;2023-02-20T14:41:27;10.00;99.90
67163;DHT22;54092;53.088;8.850;2023-02-20T14:43:59;10.00;99.90
67163;DHT22;54092;53.088;8.850;2023-02-20T14:46:27;10.10;99.90
67163;DHT22;54092;53.088;8.850;2023-02-20T14:49:05;10.10;99.90
67163;DHT22;54092;53.088;8.850;2023-02-20T14:51:31;10.10;99.90
67163;DHT22;54092;53.088;8.850;2023-02-20T14:54:23;10.10;99.90
67163;DHT22;54092;53.088;8.850;2023-02-20T14:56:50;10.20;99.90
67163;DHT22;54092;53.088;8.850;2023-02-20T14:59:28;10.10;99.90
67163;DHT22;54092;53.088;8.850;2023-02-20T15:01:57;10.10;99.90
67163;DHT22;54092;53.088;8.850;2023-02-20T15:04:24;10.10;99.90
67163;DHT22;54092;53.088;8.850;2023-02-20T15:06:52;10.10;99.90
67163;DHT22;54092;53.088;8.850;2023-02-20T15:09:19;10.20;99.90
67163;DHT22;54092;53.088;8.850;2023-02-20T15:11:56;10.20;99.90
67163;DHT22;54092;53.088;8.850;2023-02-20T15:14:28;10.20;99.90
67163;DHT22;54092;53.088;8.850;2023-02-20T15:19:39;10.20;99.90
67163;DHT22;54092;53.088;8.850;2023-02-20T15:22:05;10.20;99.90
67163;DHT22;54092;53.088;8.850;2023-02-20T15:24:45;10.20;99.90
67163;DHT22;54092;53.088;8.850;2023-02-20T15:27:16;10.10;99.90
67163;DHT22;54092;53.088;8.850;2023-02-20T15:29:44;10.20;99.90
67163;DHT22;54092;53.088;8.850;2023-02-20T15:32:20;10.20;99.90
67163;DHT22;54092;53.088;8.850;2023-02-20T15:34:53;10.20;99.90
67163;DHT22;54092;53.088;8.850;2023-02-20T15:37:30;10.20;99.90
67163;DHT22;54092;53.088;8.850;2023-02-20T15:40:21;10.20;99.90
67163;DHT22;54092;53.088;8.850;2023-02-20T15:42:47;10.30;99.90
67163;DHT22;54092;53.088;8.850;2023-02-20T15:45:14;10.20;99.90
67163;DHT22;54092;53.088;8.850;2023-02-20T15:47:40;10.20;99.90
67163;DHT22;54092;53.088;8.850;2023-02-20T15:50:06;10.30;99.90
67163;DHT22;54092;53.088;8.850;2023-02-20T15:52:31;10.30;99.90
67163;DHT22;54092;53.088;8.850;2023-02-20T15:54:58;10.30;99.90
67163;DHT22;54092;53.088;8.850;2023-02-20T15:57:26;10.30;99.90
67163;DHT22;54092;53.088;8.850;2023-02-20T15:59:51;10.30;99.90
67163;DHT22;54092;53.088;8.850;2023-02-20T16:02:19;10.30;99.90
67163;DHT22;54092;53.088;8.850;2023-02-20T16:04:46;10.30;99.90
67163;DHT22;54092;53.088;8.850;2023-02-20T16:07:12;10.30;99.90
67163;DHT22;54092;53.088;8.850;2023-02-20T16:09:39;10.30;99.90
67163;DHT22;54092;53.088;8.850;2023-02-20T16:12:04;10.30;99.90
67163;DHT22;54092;53.088;8.850;2023-02-20T16:14:30;10.30;99.90
67163;DHT22;54092;53.088;8.850;2023-02-20T16:16:56;10.40;99.90
67163;DHT22;54092;53.088;8.850;2023-02-20T16:19:22;10.30;99.90
67163;DHT22;54092;53.088;8.850;2023-02-20T16:21:48;10.30;99.90
67163;DHT22;54092;53.088;8.850;2023-02-20T16:24:14;10.30;99.90
67163;DHT22;54092;53.088;8.850;2023-02-20T16:26:43;10.20;99.90
67163;DHT22;54092;53.088;8.850;2023-02-20T16:29:19;10.10;99.90
67163;DHT22;54092;53.088;8.850;2023-02-20T16:34:23;10.00;99.90
67163;DHT22;54092;53.088;8.850;2023-02-20T16:36:50;10.00;99.90
67163;DHT22;54092;53.088;8.850;2023-02-20T16:39:15;9.90;99.90
67163;DHT22;54092;53.088;8.850;2023-02-20T16:41:41;9.90;99.90
67163;DHT22;54092;53.088;8.850;2023-02-20T16:44:23;9.80;99.90
67163;DHT22;54092;53.088;8.850;2023-02-20T16:46:49;9.80;99.90
67163;DHT22;54092;53.088;8.850;2023-02-20T16:49:15;9.80;99.90
67163;DHT22;54092;53.088;8.850;2023-02-20T16:51:42;9.80;99.90
67163;DHT22;54092;53.088;8.850;2023-02-20T16:54:15;9.70;99.90
67163;DHT22;54092;53.088;8.850;2023-02-20T16:56:41;9.70;99.90
67163;DHT22;54092;53.088;8.850;2023-02-20T16:59:06;9.70;99.90
67163;DHT22;54092;53.088;8.850;2023-02-20T17:01:35;9.70;99.90
67163;DHT22;54092;53.088;8.850;2023-02-20T17:04:00;9.60;99.90
67163;DHT22;54092;53.088;8.850;2023-02-20T17:06:26;9.60;99.90
67163;DHT22;54092;53.088;8.850;2023-02-20T17:08:57;9.50;99.90
67163;DHT22;54092;53.088;8.850;2023-02-20T17:11:25;9.50;99.90
67163;DHT22;54092;53.088;8.850;2023-02-20T17:13:50;9.50;99.90
67163;DHT22;54092;53.088;8.850;2023-02-20T17:16:16;9.60;99.90
67163;DHT22;54092;53.088;8.850;2023-02-20T17:18:41;9.50;99.90
67163;DHT22;54092;53.088;8.850;2023-02-20T17:21:08;9.50;99.90
67163;DHT22;54092;53.088;8.850;2023-02-20T17:23:33;9.50;99.90
67163;DHT22;54092;53.088;8.850;2023-02-20T17:25:59;9.50;99.90
67163;DHT22;54092;53.088;8.850;2023-02-20T17:28:24;9.50;99.90
67163;DHT22;54092;53.088;8.850;2023-02-20T17:30:50;9.50;99.90
67163;DHT22;54092;53.088;8.850;2023-02-20T17:33:19;9.50;99.90
67163;DHT22;54092;53.088;8.850;2023-02-20T17:35:45;9.50;99.90